Time;durP1;ratioP1;P1;durP2;ratioP2;P2;SDS_P1;SDS_P2;PMS_P1;PMS_P2;Temp;Humidity;BMP_temperature;BMP_pressure;BME280_temperature;BME280_humidity;BME280_pressure;Samples;Min_cycle;Max_cycle;Signal;HPM_P1;HPM_P2
2022/05/14 00:01:17;;;;;;;4.00;3.33;;;15.70;73.70;;;;;;5056449;28;20082;-65
2022/05/14 00:03:44;;;;;;;5.68;3.78;;;15.70;73.90;;;;;;5051185;28;20060;-65
2022/05/14 00:06:11;;;;;;;5.03;3.50;;;15.70;73.90;;;;;;5051835;28;20116;-65
2022/05/14 00:08:38;;;;;;;5.60;3.92;;;15.70;73.90;;;;;;5051742;28;20091;-65
2022/05/14 00:13:51;;;;;;;5.65;3.20;;;15.60;74.00;;;;;;5056524;28;20059;-65
2022/05/14 00:16:19;;;;;;;5.18;3.35;;;15.50;74.10;;;;;;5056026;28;20052;-65
2022/05/14 00:18:45;;;;;;;3.97;3.58;;;15.50;74.20;;;;;;5054737;28;20044;-65
2022/05/14 00:21:12;;;;;;;4.03;3.45;;;15.40;74.30;;;;;;5054010;28;20051;-65
2022/05/14 00:23:38;;;;;;;6.75;3.72;;;15.30;74.60;;;;;;5053114;28;20047;-65
2022/05/14 00:26:04;;;;;;;6.35;3.97;;;15.30;74.70;;;;;;5054918;28;20416;-65
2022/05/14 00:28:30;;;;;;;5.35;3.90;;;15.30;75.00;;;;;;5051431;28;20219;-65
2022/05/14 00:30:55;;;;;;;4.60;4.10;;;15.20;75.10;;;;;;5053614;28;20562;-65
2022/05/14 00:33:21;;;;;;;4.93;4.40;;;15.20;75.30;;;;;;5053257;28;20040;-65
2022/05/14 00:35:47;;;;;;;6.13;3.80;;;15.20;75.60;;;;;;5052389;28;20249;-64
2022/05/14 00:38:13;;;;;;;5.05;3.70;;;15.20;75.50;;;;;;5052167;28;20052;-65
2022/05/14 00:40:45;;;;;;;4.47;3.70;;;15.30;75.40;;;;;;5054740;28;20079;-64
2022/05/14 00:43:11;;;;;;;4.50;3.70;;;15.30;75.30;;;;;;5052311;28;20033;-65
2022/05/14 00:45:40;;;;;;;7.40;3.80;;;15.30;74.80;;;;;;5050830;28;20037;-65
2022/05/14 00:48:07;;;;;;;4.32;3.65;;;15.30;75.50;;;;;;5053491;28;20590;-64
2022/05/14 00:50:44;;;;;;;5.82;3.22;;;15.30;74.50;;;;;;5051770;28;20052;-65
2022/05/14 00:53:16;;;;;;;4.85;3.20;;;15.20;74.70;;;;;;5067495;28;20041;-65
2022/05/14 00:55:48;;;;;;;6.57;3.78;;;15.10;74.70;;;;;;5053287;28;20037;-65
2022/05/14 00:58:35;;;;;;;5.13;3.40;;;15.10;74.70;;;;;;5050937;28;20068;-65
2022/05/14 01:01:01;;;;;;;3.75;3.35;;;15.00;75.60;;;;;;5052735;28;20127;-65
2022/05/14 01:03:26;;;;;;;6.97;3.42;;;15.00;75.20;;;;;;5054652;28;20128;-65
2022/05/14 01:05:53;;;;;;;4.45;3.55;;;15.00;75.40;;;;;;5051620;28;20404;-65
2022/05/14 01:08:19;;;;;;;4.43;3.55;;;15.00;75.60;;;;;;5051459;28;20041;-65
2022/05/14 01:10:47;;;;;;;3.70;2.90;;;15.00;75.50;;;;;;5047512;28;20363;-65
2022/05/14 01:13:13;;;;;;;2.95;2.75;;;15.10;75.60;;;;;;5040973;28;20035;-65
2022/05/14 01:15:45;;;;;;;5.88;3.10;;;15.10;75.40;;;;;;5040297;28;20037;-65
2022/05/14 01:18:11;;;;;;;4.95;3.15;;;15.10;75.50;;;;;;5049167;28;20063;-65
2022/05/14 01:20:38;;;;;;;4.63;3.17;;;15.10;75.60;;;;;;5051289;28;20557;-65
2022/05/14 01:23:32;;;;;;;4.75;3.22;;;15.10;75.60;;;;;;5053924;28;20035;-66
2022/05/14 01:26:29;;;;;;;3.95;3.22;;;15.10;75.70;;;;;;5034514;28;20021;-65
2022/05/14 01:29:02;;;;;;;3.70;3.25;;;15.10;75.40;;;;;;5044986;28;20442;-64
2022/05/14 01:31:28;;;;;;;5.72;3.28;;;15.10;74.90;;;;;;5050337;28;20108;-65
2022/05/14 01:34:02;;;;;;;3.88;3.15;;;15.00;74.70;;;;;;5052173;28;20052;-65
2022/05/14 01:36:28;;;;;;;3.85;2.88;;;14.90;75.10;;;;;;5046135;28;20033;-65
2022/05/14 01:38:56;;;;;;;4.13;3.35;;;14.90;74.90;;;;;;5047827;28;20392;-65
2022/05/14 01:41:22;;;;;;;4.60;2.97;;;14.80;75.00;;;;;;5049508;28;20055;-66
2022/05/14 01:43:49;;;;;;;4.80;2.97;;;14.80;75.10;;;;;;5048812;28;20404;-63
2022/05/14 01:46:14;;;;;;;3.10;2.80;;;14.70;75.30;;;;;;5053783;28;20028;-65
2022/05/14 01:48:40;;;;;;;4.53;2.72;;;14.60;75.40;;;;;;5054246;28;20518;-65
2022/05/14 01:51:06;;;;;;;3.75;2.88;;;14.60;75.60;;;;;;5047410;28;20029;-65
2022/05/14 01:53:32;;;;;;;5.93;3.40;;;14.60;75.90;;;;;;5051554;28;20056;-65
2022/05/14 01:55:58;;;;;;;5.00;2.92;;;14.50;76.00;;;;;;5052343;28;20496;-65
2022/05/14 01:58:36;;;;;;;4.60;3.38;;;14.50;76.10;;;;;;5047492;28;20094;-65
2022/05/14 02:01:22;;;;;;;5.93;3.67;;;14.50;76.30;;;;;;5049954;28;20040;-65
2022/05/14 02:03:55;;;;;;;5.78;3.63;;;14.60;77.30;;;;;;5046649;28;20134;-64
2022/05/14 02:06:22;;;;;;;3.72;3.15;;;14.60;76.60;;;;;;5046421;28;20029;-65
2022/05/14 02:08:48;;;;;;;4.43;3.30;;;14.60;76.40;;;;;;5048240;28;20032;-64
2022/05/14 02:11:14;;;;;;;3.75;3.15;;;14.60;76.40;;;;;;5051789;28;20636;-65
2022/05/14 02:13:42;;;;;;;4.07;3.10;;;14.70;76.40;;;;;;5046314;28;20120;-65
2022/05/14 02:16:08;;;;;;;3.65;2.85;;;14.70;76.50;;;;;;5048418;28;20572;-64
2022/05/14 02:18:35;;;;;;;3.47;3.17;;;14.80;76.20;;;;;;5052339;28;20044;-63
2022/05/14 02:21:02;;;;;;;4.07;2.92;;;14.80;76.00;;;;;;5044946;28;20067;-64
2022/05/14 02:23:27;;;;;;;6.25;3.40;;;14.90;76.10;;;;;;5046048;28;21194;-65
2022/05/14 02:25:53;;;;;;;3.97;3.58;;;14.90;75.80;;;;;;5044610;28;21839;-63
2022/05/14 02:28:19;;;;;;;4.53;3.80;;;14.90;75.70;;;;;;5054734;28;20047;-65
2022/05/14 02:30:45;;;;;;;4.95;3.20;;;14.90;75.40;;;;;;5051715;28;20045;-65
2022/05/14 02:33:13;;;;;;;7.80;3.30;;;14.90;75.20;;;;;;5045649;28;20435;-65
2022/05/14 02:35:40;;;;;;;7.10;3.28;;;14.90;75.00;;;;;;5046303;28;20108;-65
2022/05/14 02:38:06;;;;;;;6.63;3.30;;;14.90;74.80;;;;;;5044716;28;20107;-64
2022/05/14 02:40:32;;;;;;;6.30;3.38;;;14.90;74.60;;;;;;5044097;28;20625;-64
2022/05/14 02:42:57;;;;;;;8.55;3.50;;;14.80;74.50;;;;;;5044805;28;20032;-64
2022/05/14 02:45:23;;;;;;;4.20;3.55;;;14.70;74.40;;;;;;5042805;28;20064;-65
2022/05/14 02:47:49;;;;;;;4.65;3.15;;;14.60;74.60;;;;;;5046386;28;20055;-64
2022/05/14 02:50:15;;;;;;;3.55;3.25;;;14.60;74.60;;;;;;5049167;28;20059;-64
2022/05/14 02:52:41;;;;;;;6.28;3.30;;;14.50;74.70;;;;;;5059354;28;20029;-65
2022/05/14 02:55:08;;;;;;;3.58;3.22;;;14.40;75.00;;;;;;5042872;28;20287;-64
2022/05/14 02:57:35;;;;;;;4.85;3.30;;;14.40;75.20;;;;;;5045138;28;20063;-65
2022/05/14 03:00:01;;;;;;;6.15;3.42;;;14.30;75.40;;;;;;5046220;28;20040;-65
2022/05/14 03:02:27;;;;;;;5.78;3.30;;;14.30;75.60;;;;;;5059190;28;20499;-65
2022/05/14 03:04:53;;;;;;;4.32;2.95;;;14.30;75.60;;;;;;5047671;28;20033;-65
2022/05/14 03:07:19;;;;;;;4.07;3.60;;;14.30;75.40;;;;;;5044032;28;20075;-65
2022/05/14 03:09:45;;;;;;;3.75;2.90;;;14.30;75.20;;;;;;5044767;28;20052;-65
2022/05/14 03:12:13;;;;;;;5.88;3.70;;;14.30;75.10;;;;;;5053174;28;20041;-65
2022/05/14 03:14:39;;;;;;;3.90;3.50;;;14.30;75.40;;;;;;5043660;28;20041;-65
2022/05/14 03:17:06;;;;;;;6.22;3.38;;;14.20;75.40;;;;;;5045628;28;20146;-65
2022/05/14 03:19:32;;;;;;;3.50;3.17;;;14.20;75.40;;;;;;5044212;28;20040;-65
2022/05/14 03:21:59;;;;;;;5.75;3.20;;;14.20;75.40;;;;;;5047079;28;20033;-64
2022/05/14 03:24:25;;;;;;;7.60;3.35;;;14.20;75.20;;;;;;5042001;28;20112;-64
2022/05/14 03:26:51;;;;;;;3.20;2.85;;;14.20;75.10;;;;;;5043015;28;20051;-64
2022/05/14 03:29:16;;;;;;;3.78;3.10;;;14.20;74.90;;;;;;5045237;28;20135;-65
2022/05/14 03:31:42;;;;;;;4.70;3.13;;;14.20;74.90;;;;;;5043417;28;20028;-65
2022/05/14 03:34:13;;;;;;;3.05;2.75;;;14.20;74.80;;;;;;5044148;28;20064;-65
2022/05/14 03:36:41;;;;;;;3.80;2.67;;;14.10;74.80;;;;;;5047348;28;20037;-64
2022/05/14 03:39:07;;;;;;;5.60;3.40;;;14.20;74.70;;;;;;5042500;28;20123;-63
2022/05/14 03:41:34;;;;;;;4.15;3.03;;;14.10;74.40;;;;;;5044207;28;20041;-65
2022/05/14 03:44:01;;;;;;;6.10;3.20;;;14.10;74.40;;;;;;5043570;28;20036;-64
2022/05/14 03:46:26;;;;;;;4.32;2.92;;;14.00;74.20;;;;;;5043572;28;20037;-65
2022/05/14 03:48:52;;;;;;;4.95;3.17;;;13.90;74.10;;;;;;5043753;28;20032;-65
2022/05/14 03:51:18;;;;;;;5.20;2.97;;;13.90;74.30;;;;;;5048553;28;20040;-65
2022/05/14 03:53:44;;;;;;;4.38;3.10;;;13.80;74.60;;;;;;5042505;28;20496;-65
2022/05/14 03:56:10;;;;;;;3.83;3.17;;;13.70;74.60;;;;;;5042975;28;20412;-65
2022/05/14 03:58:36;;;;;;;4.68;3.13;;;13.70;74.70;;;;;;5043371;28;20484;-64
2022/05/14 04:01:04;;;;;;;5.80;3.35;;;13.60;74.90;;;;;;5046480;28;20728;-65
2022/05/14 04:03:31;;;;;;;4.38;3.17;;;13.60;75.10;;;;;;5043450;28;20041;-64
2022/05/14 04:05:57;;;;;;;5.40;3.95;;;13.60;75.00;;;;;;5044787;28;20124;-65
2022/05/14 04:08:22;;;;;;;3.72;3.42;;;13.60;75.60;;;;;;5045202;28;20461;-65
2022/05/14 04:10:48;;;;;;;6.53;3.13;;;13.50;74.60;;;;;;5042718;28;20044;-65
2022/05/14 04:13:14;;;;;;;3.83;3.10;;;13.50;74.80;;;;;;5043311;28;20040;-64
2022/05/14 04:15:39;;;;;;;3.83;3.13;;;13.40;75.10;;;;;;5043502;28;20100;-65
2022/05/14 04:18:06;;;;;;;3.58;2.97;;;13.40;75.40;;;;;;5044601;28;20040;-65
2022/05/14 04:20:32;;;;;;;7.03;4.18;;;13.30;75.70;;;;;;5044382;28;20529;-65
2022/05/14 04:22:57;;;;;;;8.23;4.03;;;13.30;75.80;;;;;;5049441;28;20033;-63
2022/05/14 04:25:24;;;;;;;8.57;5.05;;;13.30;75.80;;;;;;5042596;28;20160;-65
2022/05/14 04:27:50;;;;;;;10.30;5.22;;;13.30;76.00;;;;;;5044308;28;20026;-65
2022/05/14 04:30:16;;;;;;;7.82;5.43;;;13.30;76.00;;;;;;5043480;28;20093;-64
2022/05/14 04:32:43;;;;;;;9.25;5.30;;;13.30;75.90;;;;;;5041419;28;20033;-64
2022/05/14 04:35:11;;;;;;;6.60;4.03;;;13.20;76.10;;;;;;5042449;28;20079;-65
2022/05/14 04:37:37;;;;;;;5.32;3.85;;;13.30;76.50;;;;;;5049887;28;20040;-64
2022/05/14 04:40:05;;;;;;;5.35;3.95;;;13.30;76.60;;;;;;5042384;28;20029;-64
2022/05/14 04:42:31;;;;;;;12.20;8.90;;;13.20;76.50;;;;;;5041934;28;20677;-64
2022/05/14 04:44:57;;;;;;;19.02;12.32;;;13.30;76.50;;;;;;5042835;28;20040;-64
2022/05/14 04:47:23;;;;;;;16.50;11.65;;;13.30;76.60;;;;;;5042242;28;20063;-63
2022/05/14 04:49:49;;;;;;;13.77;10.10;;;13.30;76.70;;;;;;5042353;28;20123;-64
2022/05/14 04:52:15;;;;;;;13.40;7.13;;;13.30;76.80;;;;;;5041956;28;20064;-65
2022/05/14 04:54:41;;;;;;;12.45;8.38;;;13.30;77.00;;;;;;5042430;28;20033;-64
2022/05/14 04:57:07;;;;;;;10.25;8.07;;;13.30;77.00;;;;;;5042257;28;20048;-65
2022/05/14 04:59:33;;;;;;;8.13;5.57;;;13.30;77.30;;;;;;5042871;28;20530;-65
2022/05/14 05:04:46;;;;;;;4.50;4.10;;;13.30;78.00;;;;;;5043451;28;20067;-65
2022/05/14 05:07:11;;;;;;;6.40;3.95;;;13.30;78.00;;;;;;5041303;28;20044;-65
2022/05/14 05:09:37;;;;;;;5.57;5.07;;;13.30;78.30;;;;;;5045993;28;20042;-64
2022/05/14 05:12:04;;;;;;;6.07;4.80;;;13.40;78.60;;;;;;5042054;28;20033;-65
2022/05/14 05:14:30;;;;;;;6.45;5.43;;;13.50;78.60;;;;;;5045556;28;20182;-66
2022/05/14 05:16:55;;;;;;;6.13;5.00;;;13.50;79.40;;;;;;5041595;28;20119;-64
2022/05/14 05:19:21;;;;;;;5.65;4.95;;;13.60;78.60;;;;;;5041898;28;20040;-65
2022/05/14 05:21:47;;;;;;;4.95;4.43;;;13.70;78.70;;;;;;5043721;28;20029;-65
2022/05/14 05:24:13;;;;;;;6.50;4.10;;;13.70;78.80;;;;;;5044930;28;20029;-65
2022/05/14 05:26:38;;;;;;;8.55;3.72;;;13.80;78.80;;;;;;5039987;28;20341;-63
2022/05/14 05:29:05;;;;;;;8.02;3.50;;;13.90;78.80;;;;;;5043041;28;20488;-64
2022/05/14 05:31:32;;;;;;;6.57;3.78;;;14.00;78.80;;;;;;5042221;28;20141;-64
2022/05/14 05:33:58;;;;;;;4.70;3.22;;;14.00;78.70;;;;;;5040484;28;20079;-64
2022/05/14 05:36:24;;;;;;;4.88;3.22;;;14.10;78.50;;;;;;5039527;28;20043;-66
2022/05/14 05:38:53;;;;;;;3.88;3.53;;;14.20;78.40;;;;;;5043467;28;20079;-65
2022/05/14 05:41:19;;;;;;;5.10;3.50;;;14.30;78.40;;;;;;5043817;28;20126;-65
2022/05/14 05:43:46;;;;;;;4.90;2.92;;;14.40;78.30;;;;;;5039826;28;20033;-65
2022/05/14 05:46:11;;;;;;;5.50;3.28;;;14.50;78.20;;;;;;5042049;28;20029;-63
2022/05/14 05:48:38;;;;;;;5.55;2.90;;;14.60;78.20;;;;;;5042080;28;20032;-64
2022/05/14 05:51:04;;;;;;;3.30;3.00;;;14.70;77.90;;;;;;5042001;28;20043;-65
2022/05/14 05:58:59;;;;;;;4.85;3.17;;;14.90;77.50;;;;;;5040979;28;20186;-65
2022/05/14 06:01:25;;;;;;;6.30;3.13;;;15.00;77.00;;;;;;5044489;28;20500;-63
2022/05/14 06:03:51;;;;;;;6.97;3.30;;;15.10;77.20;;;;;;5039010;28;20059;-65
2022/05/14 06:06:18;;;;;;;4.15;3.28;;;15.10;76.80;;;;;;5044657;28;20124;-65
2022/05/14 06:08:44;;;;;;;5.38;3.28;;;15.20;76.20;;;;;;5045230;28;20040;-64
2022/05/14 06:11:10;;;;;;;5.05;2.97;;;15.30;75.60;;;;;;5050914;28;20598;-65
2022/05/14 06:13:35;;;;;;;5.13;3.15;;;15.30;75.60;;;;;;5049330;28;20082;-65
2022/05/14 06:16:01;;;;;;;4.68;3.40;;;15.40;75.80;;;;;;5049085;28;20083;-65
2022/05/14 06:18:27;;;;;;;3.42;3.00;;;15.40;75.60;;;;;;5044056;28;20037;-64
2022/05/14 06:20:53;;;;;;;3.53;3.13;;;15.50;76.00;;;;;;5046679;28;20454;-65
2022/05/14 06:23:20;;;;;;;5.03;2.97;;;15.50;76.20;;;;;;5045539;28;20044;-64
2022/05/14 06:25:45;;;;;;;5.63;3.25;;;15.60;76.00;;;;;;5047727;28;20037;-65
2022/05/14 06:28:12;;;;;;;5.22;3.45;;;15.70;76.00;;;;;;5047692;28;20512;-65
2022/05/14 06:30:41;;;;;;;3.58;3.20;;;15.80;75.90;;;;;;5044757;28;20068;-64
2022/05/14 06:33:08;;;;;;;5.50;3.00;;;15.80;75.70;;;;;;5045046;28;20517;-65
2022/05/14 06:35:35;;;;;;;4.85;3.40;;;15.90;75.50;;;;;;5051873;28;20112;-65
2022/05/14 06:38:02;;;;;;;6.45;3.35;;;16.00;75.10;;;;;;5074935;28;20037;-64
2022/05/14 06:40:28;;;;;;;6.00;2.72;;;16.00;74.60;;;;;;5057893;28;20032;-65
2022/05/14 06:42:53;;;;;;;4.13;2.38;;;16.10;74.20;;;;;;5047849;28;20099;-64
2022/05/14 06:45:19;;;;;;;5.53;2.20;;;16.20;73.30;;;;;;5044466;28;20037;-64
2022/05/14 06:47:45;;;;;;;3.55;2.38;;;16.30;73.20;;;;;;5046487;28;20098;-65
2022/05/14 06:50:11;;;;;;;4.25;2.20;;;16.30;72.70;;;;;;5043921;28;20047;-64
2022/05/14 06:52:40;;;;;;;5.78;2.47;;;16.40;72.60;;;;;;5043202;28;20044;-64
2022/05/14 06:55:06;;;;;;;2.67;2.47;;;16.50;72.10;;;;;;5044890;28;20507;-65
2022/05/14 06:57:35;;;;;;;7.60;2.33;;;16.60;72.00;;;;;;5049261;28;20067;-65
2022/05/14 07:00:01;;;;;;;5.72;2.45;;;16.60;71.60;;;;;;5046716;28;20033;-65
2022/05/14 07:02:28;;;;;;;2.55;1.90;;;16.70;71.20;;;;;;5051661;28;20651;-66
2022/05/14 07:07:39;;;;;;;3.63;1.00;;;16.90;69.30;;;;;;5058469;28;20600;-65
2022/05/14 07:10:05;;;;;;;1.60;1.00;;;17.00;68.90;;;;;;5052223;28;20033;-66
2022/05/14 07:12:32;;;;;;;2.55;1.17;;;17.00;68.30;;;;;;5048392;28;20047;-65
2022/05/14 07:14:58;;;;;;;2.70;1.27;;;17.10;68.10;;;;;;5043765;28;20053;-65
2022/05/14 07:17:25;;;;;;;1.50;1.27;;;17.20;67.80;;;;;;5041945;28;20120;-65
2022/05/14 07:19:51;;;;;;;5.00;1.52;;;17.30;67.80;;;;;;5044681;28;20083;-65
2022/05/14 07:22:17;;;;;;;2.97;1.40;;;17.30;67.90;;;;;;5042790;28;20029;-65
2022/05/14 07:24:44;;;;;;;2.22;1.17;;;17.50;67.80;;;;;;5045373;28;20039;-65
2022/05/14 07:27:11;;;;;;;2.28;1.33;;;17.50;67.50;;;;;;5042811;28;20104;-66
2022/05/14 07:29:40;;;;;;;4.28;1.55;;;17.60;67.00;;;;;;5047583;28;20040;-63
2022/05/14 07:32:08;;;;;;;3.58;1.25;;;17.70;66.60;;;;;;5043200;28;20547;-66
2022/05/14 07:34:33;;;;;;;1.63;1.10;;;17.70;65.10;;;;;;5043365;28;20515;-65
2022/05/14 07:37:07;;;;;;;2.20;0.95;;;17.80;66.00;;;;;;5045053;28;20045;-65
2022/05/14 07:39:55;;;;;;;2.97;1.00;;;17.90;64.50;;;;;;5043407;28;20536;-65
2022/05/14 07:42:28;;;;;;;1.50;0.80;;;18.00;63.20;;;;;;5040627;28;20041;-65
2022/05/14 07:44:56;;;;;;;1.60;1.00;;;18.10;63.80;;;;;;5045188;28;20472;-65
2022/05/14 07:47:23;;;;;;;2.67;1.02;;;18.20;63.80;;;;;;5044263;28;20119;-65
2022/05/14 07:49:50;;;;;;;1.60;0.75;;;18.30;63.70;;;;;;5044885;28;20033;-64
2022/05/14 07:52:17;;;;;;;2.50;1.10;;;18.40;63.50;;;;;;5044823;28;20640;-65
2022/05/14 07:54:43;;;;;;;1.63;0.88;;;18.50;63.30;;;;;;5040885;28;22365;-65
2022/05/14 07:57:09;;;;;;;1.00;0.80;;;18.60;62.50;;;;;;5048144;28;20376;-65
2022/05/14 07:59:35;;;;;;;1.85;0.68;;;18.70;62.30;;;;;;5045867;28;20090;-66
2022/05/14 08:02:09;;;;;;;1.38;0.82;;;18.70;61.80;;;;;;5045878;28;20040;-66
2022/05/14 08:04:38;;;;;;;3.97;0.70;;;18.80;60.90;;;;;;5043802;28;20037;-65
2022/05/14 08:07:04;;;;;;;1.92;1.17;;;18.90;61.40;;;;;;5044498;28;20040;-65
2022/05/14 08:09:30;;;;;;;1.98;0.82;;;19.00;61.60;;;;;;5043446;28;20040;-65
2022/05/14 08:11:58;;;;;;;1.20;0.70;;;19.10;61.00;;;;;;5045418;28;20041;-65
2022/05/14 08:14:25;;;;;;;1.45;0.65;;;19.20;60.40;;;;;;5044606;28;20037;-65
2022/05/14 08:16:51;;;;;;;1.80;0.60;;;19.30;59.90;;;;;;5043934;28;20052;-64
2022/05/14 08:19:17;;;;;;;2.30;0.50;;;19.40;59.50;;;;;;5043074;28;20507;-65
2022/05/14 08:24:35;;;;;;;1.35;0.80;;;19.60;58.50;;;;;;5042984;28;20036;-65
2022/05/14 08:27:05;;;;;;;3.40;0.85;;;19.70;58.60;;;;;;5042465;28;20044;-65
2022/05/14 08:29:32;;;;;;;2.22;0.60;;;19.70;58.40;;;;;;5046202;28;20045;-63
2022/05/14 08:31:58;;;;;;;5.43;1.10;;;19.80;58.00;;;;;;5043020;28;20064;-65
2022/05/14 08:34:24;;;;;;;2.05;0.90;;;19.90;57.80;;;;;;5048372;28;20070;-63
2022/05/14 08:36:50;;;;;;;1.67;0.80;;;20.00;57.90;;;;;;5042862;28;20040;-65
2022/05/14 08:39:16;;;;;;;2.92;0.70;;;20.10;57.80;;;;;;5043944;28;20037;-64
2022/05/14 08:41:47;;;;;;;5.05;1.00;;;20.20;57.40;;;;;;5042826;28;20401;-65
2022/05/14 08:44:17;;;;;;;3.40;0.77;;;20.20;56.40;;;;;;5046418;28;20041;-63
2022/05/14 08:46:43;;;;;;;2.55;1.10;;;20.30;56.60;;;;;;5043596;28;20116;-65
2022/05/14 08:49:41;;;;;;;2.70;0.93;;;20.40;56.10;;;;;;5042789;28;20123;-64
2022/05/14 08:52:12;;;;;;;2.42;1.13;;;20.50;54.80;;;;;;5042049;28;20033;-65
2022/05/14 08:54:37;;;;;;;2.20;0.93;;;20.60;56.20;;;;;;5045136;28;20025;-64
2022/05/14 08:57:39;;;;;;;2.60;1.10;;;20.70;56.10;;;;;;5046419;28;20033;-65
2022/05/14 09:00:07;;;;;;;2.20;0.98;;;20.80;55.30;;;;;;5045348;28;20794;-66
2022/05/14 09:02:35;;;;;;;4.53;1.10;;;20.80;55.80;;;;;;5042739;28;20219;-65
2022/05/14 09:05:30;;;;;;;3.05;1.20;;;20.90;55.20;;;;;;5042534;28;20029;-65
2022/05/14 09:07:57;;;;;;;2.83;1.23;;;21.00;55.00;;;;;;5058881;28;20040;-65
2022/05/14 09:10:27;;;;;;;2.35;0.90;;;21.10;56.10;;;;;;5044945;28;20107;-65
2022/05/14 09:12:59;;;;;;;3.05;1.17;;;21.20;55.90;;;;;;5043907;28;20114;-64
2022/05/14 09:15:31;;;;;;;3.42;1.00;;;21.30;55.50;;;;;;5043579;28;20491;-65
2022/05/14 09:18:07;;;;;;;3.03;1.40;;;21.40;55.50;;;;;;5043256;28;20029;-63
2022/05/14 09:20:45;;;;;;;3.13;1.33;;;21.50;54.70;;;;;;5032890;28;20032;-62
2022/05/14 09:23:11;;;;;;;3.90;1.50;;;21.60;54.10;;;;;;5036454;28;20108;-63
2022/05/14 09:25:41;;;;;;;1.10;1.00;;;21.70;54.10;;;;;;5030769;28;20068;-64
2022/05/14 09:28:23;;;;;;;3.65;1.30;;;21.80;54.20;;;;;;5033411;28;20618;-64
2022/05/14 09:30:58;;;;;;;5.13;1.30;;;21.80;53.90;;;;;;5041654;28;20076;-65
2022/05/14 09:33:27;;;;;;;2.92;1.42;;;21.90;53.40;;;;;;5027827;28;20043;-64
2022/05/14 09:35:59;;;;;;;5.07;2.05;;;22.00;53.60;;;;;;5029783;28;20124;-64
2022/05/14 09:38:26;;;;;;;1.40;1.10;;;22.00;52.20;;;;;;5039309;28;20083;-65
2022/05/14 09:40:53;;;;;;;3.75;1.50;;;22.00;53.10;;;;;;5039082;28;20047;-64
2022/05/14 09:43:18;;;;;;;6.03;1.38;;;22.10;53.00;;;;;;5032956;28;20036;-63
2022/05/14 09:45:57;;;;;;;2.92;1.42;;;22.00;53.30;;;;;;5037690;28;20384;-64
2022/05/14 09:48:34;;;;;;;2.15;1.15;;;22.10;53.50;;;;;;5038966;28;20111;-62
2022/05/14 09:51:07;;;;;;;3.42;1.48;;;22.20;54.10;;;;;;5035823;28;20579;-65
2022/05/14 09:53:36;;;;;;;2.92;1.60;;;22.20;53.60;;;;;;5038043;28;21116;-64
2022/05/14 09:56:22;;;;;;;1.98;1.25;;;22.30;53.90;;;;;;5032316;28;20949;-65
2022/05/14 09:58:56;;;;;;;2.75;1.30;;;22.50;52.70;;;;;;5022580;28;20060;-64
2022/05/14 10:01:53;;;;;;;2.28;1.27;;;22.50;52.60;;;;;;5035652;28;20467;-65
2022/05/14 10:04:41;;;;;;;3.92;1.67;;;22.60;50.20;;;;;;5040644;28;20052;-64
2022/05/14 10:07:26;;;;;;;9.98;2.13;;;22.60;50.20;;;;;;5039520;28;20059;-65
2022/05/14 10:10:01;;;;;;;3.90;1.73;;;22.70;50.60;;;;;;5031358;28;20811;-65
2022/05/14 10:12:33;;;;;;;5.97;1.40;;;22.60;50.30;;;;;;5043521;28;20041;-62
2022/05/14 10:15:15;;;;;;;2.72;1.25;;;22.60;50.40;;;;;;5030522;28;20074;-64
2022/05/14 10:17:47;;;;;;;2.90;1.38;;;22.60;50.50;;;;;;5044943;28;20092;-65
2022/05/14 10:20:37;;;;;;;2.10;1.60;;;22.50;51.20;;;;;;5038285;28;20032;-65
2022/05/14 10:26:46;;;;;;;2.28;1.30;;;22.60;51.40;;;;;;5031719;28;20036;-66
2022/05/14 10:29:33;;;;;;;2.63;1.35;;;22.70;51.00;;;;;;5049306;28;20032;-65
2022/05/14 10:31:59;;;;;;;5.22;1.50;;;22.70;51.80;;;;;;5033440;28;20029;-65
2022/05/14 10:34:33;;;;;;;3.08;1.52;;;22.70;50.80;;;;;;5035722;28;20029;-66
2022/05/14 10:37:04;;;;;;;3.17;1.55;;;22.80;51.20;;;;;;5032459;28;20453;-63
2022/05/14 10:39:42;;;;;;;1.73;1.30;;;22.80;50.60;;;;;;5044657;28;20509;-65
2022/05/14 10:42:17;;;;;;;3.00;1.45;;;22.80;49.80;;;;;;5035283;28;20029;-64
2022/05/14 10:44:50;;;;;;;4.28;1.50;;;22.80;50.90;;;;;;5040722;28;20044;-65
2022/05/14 10:47:17;;;;;;;3.55;1.60;;;22.90;50.90;;;;;;5031949;28;20028;-66
2022/05/14 10:49:53;;;;;;;3.00;1.50;;;22.90;51.00;;;;;;5037811;28;20055;-65
2022/05/14 10:52:19;;;;;;;3.35;1.33;;;22.90;50.20;;;;;;5030593;28;20124;-65
2022/05/14 10:54:46;;;;;;;3.05;1.30;;;23.00;50.80;;;;;;5036074;28;20089;-65
2022/05/14 10:57:14;;;;;;;1.40;1.30;;;23.00;50.20;;;;;;5026846;28;20037;-65
2022/05/14 10:59:54;;;;;;;3.17;1.50;;;23.00;50.10;;;;;;5037561;28;20048;-66
2022/05/14 11:02:32;;;;;;;1.80;1.42;;;23.00;49.70;;;;;;5032419;28;20029;-65
2022/05/14 11:04:59;;;;;;;1.67;1.08;;;23.10;49.00;;;;;;5038542;28;20030;-65
2022/05/14 11:07:35;;;;;;;5.80;1.65;;;23.10;50.20;;;;;;5029558;28;20039;-63
2022/05/14 11:10:12;;;;;;;2.05;1.40;;;23.10;48.00;;;;;;5035990;28;20040;-66
2022/05/14 11:12:39;;;;;;;2.17;1.25;;;23.10;48.10;;;;;;5035121;28;20689;-66
2022/05/14 11:15:20;;;;;;;2.67;1.30;;;23.10;48.10;;;;;;5030964;28;20126;-63
2022/05/14 11:17:46;;;;;;;3.00;1.23;;;23.10;46.70;;;;;;5036961;28;20060;-65
2022/05/14 11:20:16;;;;;;;1.88;1.25;;;23.00;47.20;;;;;;5040053;28;20657;-63
2022/05/14 11:22:44;;;;;;;2.28;1.40;;;23.10;47.10;;;;;;5026364;28;20032;-64
2022/05/14 11:25:16;;;;;;;3.75;1.17;;;23.00;47.70;;;;;;5032890;28;21235;-65
2022/05/14 11:27:43;;;;;;;2.28;1.30;;;23.00;47.50;;;;;;5037332;28;20064;-65
2022/05/14 11:30:11;;;;;;;1.95;1.17;;;23.00;47.20;;;;;;5033341;28;20041;-65
2022/05/14 11:32:45;;;;;;;1.80;1.10;;;23.00;47.30;;;;;;5031322;28;20043;-65
2022/05/14 11:35:11;;;;;;;1.73;1.00;;;23.10;47.90;;;;;;5045203;28;20573;-65
2022/05/14 11:37:45;;;;;;;3.03;0.80;;;23.00;46.80;;;;;;5054004;28;20772;-65
2022/05/14 11:40:16;;;;;;;3.42;1.20;;;23.00;45.80;;;;;;5050446;28;20037;-65
2022/05/14 11:42:43;;;;;;;1.52;1.20;;;23.00;45.90;;;;;;5047061;28;20542;-65
2022/05/14 11:45:20;;;;;;;2.33;1.20;;;23.00;46.80;;;;;;5051592;28;20035;-65
2022/05/14 11:48:10;;;;;;;2.38;1.02;;;23.00;46.90;;;;;;5056672;28;20033;-65
2022/05/14 11:50:54;;;;;;;5.22;0.95;;;23.00;46.80;;;;;;5052311;28;20094;-65
2022/05/14 11:53:24;;;;;;;1.30;0.90;;;23.00;47.20;;;;;;5053990;28;20037;-65
2022/05/14 11:55:54;;;;;;;1.88;1.00;;;23.10;47.00;;;;;;5048924;28;20113;-64
2022/05/14 11:58:44;;;;;;;2.13;1.10;;;23.20;46.40;;;;;;5053064;28;20062;-65
2022/05/14 12:01:18;;;;;;;3.08;1.25;;;23.20;44.70;;;;;;5049920;28;20612;-64
2022/05/14 12:03:45;;;;;;;2.25;1.20;;;23.20;47.30;;;;;;5052791;28;20119;-65
2022/05/14 12:06:35;;;;;;;2.50;1.10;;;23.20;46.90;;;;;;5044911;28;20033;-63
2022/05/14 12:09:20;;;;;;;1.38;1.10;;;23.30;45.20;;;;;;5047299;28;20029;-65
2022/05/14 12:11:52;;;;;;;2.83;1.30;;;23.40;46.20;;;;;;5050253;28;20032;-65
2022/05/14 12:14:27;;;;;;;2.42;1.17;;;23.40;47.60;;;;;;5046539;28;20087;-65
2022/05/14 12:16:55;;;;;;;1.13;1.00;;;23.40;47.40;;;;;;5057268;28;20043;-66
2022/05/14 12:19:28;;;;;;;1.58;1.20;;;23.50;47.20;;;;;;5053357;28;20044;-66
2022/05/14 12:21:57;;;;;;;4.00;1.40;;;23.60;47.30;;;;;;5059516;28;20512;-65
2022/05/14 12:24:38;;;;;;;4.00;1.05;;;23.70;46.40;;;;;;5055537;28;20041;-66
2022/05/14 12:27:15;;;;;;;2.03;1.13;;;23.70;46.20;;;;;;5050950;28;20032;-65
2022/05/14 12:29:56;;;;;;;1.80;1.30;;;23.80;46.40;;;;;;5056351;28;20392;-66
2022/05/14 12:35:25;;;;;;;3.10;1.15;;;23.80;45.80;;;;;;5051475;28;20082;-65
2022/05/14 12:37:59;;;;;;;6.53;0.90;;;23.90;42.60;;;;;;5055156;28;20082;-66
2022/05/14 12:40:33;;;;;;;2.30;1.10;;;23.90;42.10;;;;;;5050287;28;20053;-65
2022/05/14 12:42:59;;;;;;;2.55;1.20;;;23.80;44.10;;;;;;5050267;28;20029;-65
2022/05/14 12:45:40;;;;;;;1.10;1.00;;;23.80;44.90;;;;;;5055566;28;20028;-65
2022/05/14 12:48:08;;;;;;;0.98;0.77;;;23.80;42.30;;;;;;5052432;28;20033;-66
2022/05/14 12:50:34;;;;;;;3.08;0.88;;;23.80;42.90;;;;;;5049055;28;20060;-65
2022/05/14 12:53:06;;;;;;;2.42;1.08;;;23.80;42.10;;;;;;5044840;28;20123;-65
2022/05/14 12:55:39;;;;;;;2.20;0.90;;;23.80;42.80;;;;;;5055145;28;20045;-65
2022/05/14 12:58:06;;;;;;;2.00;0.90;;;23.80;41.90;;;;;;5053918;28;20063;-66
2022/05/14 13:00:38;;;;;;;4.13;0.80;;;23.80;41.20;;;;;;5055040;28;20108;-65
2022/05/14 13:03:12;;;;;;;1.02;0.77;;;23.80;39.90;;;;;;5054725;28;20033;-65
2022/05/14 13:05:45;;;;;;;1.98;0.82;;;23.80;40.60;;;;;;5055823;28;20515;-65
2022/05/14 13:08:14;;;;;;;1.60;0.75;;;23.90;41.90;;;;;;5056241;28;20044;-66
2022/05/14 13:10:48;;;;;;;1.20;0.82;;;23.90;41.90;;;;;;5055180;28;20443;-65
2022/05/14 13:13:14;;;;;;;1.75;0.88;;;24.00;41.20;;;;;;5049446;28;20078;-63
2022/05/14 13:15:55;;;;;;;2.58;1.00;;;24.00;42.20;;;;;;5055364;28;20036;-65
2022/05/14 13:18:22;;;;;;;2.45;1.00;;;24.00;41.40;;;;;;5054494;28;20056;-65
2022/05/14 13:21:00;;;;;;;1.38;0.98;;;24.00;41.90;;;;;;5054980;28;20043;-65